sensor_id;sensor_type;location;lat;lon;timestamp;pressure;altitude;pressure_sealevel;temperature;humidity
15670;BME280;18524;45.190;5.732;2022-09-16T00:01:17;98669.34;;;21.67;90.00
15670;BME280;18524;45.190;5.732;2022-09-16T00:06:26;98675.50;;;21.48;90.27
15670;BME280;18524;45.190;5.732;2022-09-16T00:11:17;98666.69;;;21.28;92.68
15670;BME280;18524;45.190;5.732;2022-09-16T00:16:10;98675.28;;;21.23;93.13
15670;BME280;18524;45.190;5.732;2022-09-16T00:21:00;98669.16;;;21.42;89.52
15670;BME280;18524;45.190;5.732;2022-09-16T00:25:53;98672.22;;;21.39;92.82
15670;BME280;18524;45.190;5.732;2022-09-16T00:30:44;98674.28;;;21.50;89.96
15670;BME280;18524;45.190;5.732;2022-09-16T00:35:34;98672.44;;;21.44;89.62
15670;BME280;18524;45.190;5.732;2022-09-16T00:40:24;98675.91;;;21.32;91.58
15670;BME280;18524;45.190;5.732;2022-09-16T00:45:21;98673.88;;;21.47;88.68
15670;BME280;18524;45.190;5.732;2022-09-16T00:50:27;98673.03;;;21.40;91.05
15670;BME280;18524;45.190;5.732;2022-09-16T00:55:26;98667.28;;;21.36;90.02
15670;BME280;18524;45.190;5.732;2022-09-16T01:00:18;98670.56;;;21.51;89.01
15670;BME280;18524;45.190;5.732;2022-09-16T01:05:14;98658.44;;;21.22;91.18
15670;BME280;18524;45.190;5.732;2022-09-16T01:10:06;98650.69;;;21.28;90.36
15670;BME280;18524;45.190;5.732;2022-09-16T01:14:57;98669.97;;;21.43;88.82
15670;BME280;18524;45.190;5.732;2022-09-16T01:31:39;98666.47;;;21.49;90.27
15670;BME280;18524;45.190;5.732;2022-09-16T01:46:53;98653.53;;;21.52;89.99
15670;BME280;18524;45.190;5.732;2022-09-16T01:57:05;98649.63;;;21.48;89.05
15670;BME280;18524;45.190;5.732;2022-09-16T02:02:02;98650.06;;;21.39;90.20
15670;BME280;18524;45.190;5.732;2022-09-16T02:06:55;98655.41;;;21.39;91.58
15670;BME280;18524;45.190;5.732;2022-09-16T02:11:49;98654.34;;;21.20;94.89
15670;BME280;18524;45.190;5.732;2022-09-16T02:21:40;98653.34;;;21.54;89.21
15670;BME280;18524;45.190;5.732;2022-09-16T02:26:35;98657.03;;;21.53;89.05
15670;BME280;18524;45.190;5.732;2022-09-16T02:31:31;98659.50;;;21.61;90.82
15670;BME280;18524;45.190;5.732;2022-09-16T02:36:24;98664.00;;;21.74;88.98
15670;BME280;18524;45.190;5.732;2022-09-16T02:41:15;98667.09;;;21.77;86.75
15670;BME280;18524;45.190;5.732;2022-09-16T02:56:02;98655.56;;;21.83;87.57
15670;BME280;18524;45.190;5.732;2022-09-16T03:00:56;98654.53;;;21.84;85.87
15670;BME280;18524;45.190;5.732;2022-09-16T03:10:57;98656.19;;;21.85;86.45
15670;BME280;18524;45.190;5.732;2022-09-16T03:16:06;98658.25;;;21.77;87.37
15670;BME280;18524;45.190;5.732;2022-09-16T03:21:15;98644.09;;;21.70;89.80
15670;BME280;18524;45.190;5.732;2022-09-16T03:26:28;98645.34;;;21.67;88.26
15670;BME280;18524;45.190;5.732;2022-09-16T03:36:42;98638.78;;;21.57;89.27
15670;BME280;18524;45.190;5.732;2022-09-16T03:41:34;98640.81;;;21.48;88.94
15670;BME280;18524;45.190;5.732;2022-09-16T03:46:25;98644.91;;;21.50;89.32
15670;BME280;18524;45.190;5.732;2022-09-16T03:51:17;98640.81;;;21.61;89.00
15670;BME280;18524;45.190;5.732;2022-09-16T03:56:08;98645.97;;;21.23;90.32
15670;BME280;18524;45.190;5.732;2022-09-16T04:00:58;98648.75;;;21.08;93.05
15670;BME280;18524;45.190;5.732;2022-09-16T04:05:52;98645.06;;;21.09;93.03
15670;BME280;18524;45.190;5.732;2022-09-16T04:10:58;98644.88;;;21.11;92.00
15670;BME280;18524;45.190;5.732;2022-09-16T04:15:49;98647.13;;;21.07;92.81
15670;BME280;18524;45.190;5.732;2022-09-16T04:20:39;98639.31;;;20.92;95.13
15670;BME280;18524;45.190;5.732;2022-09-16T04:25:31;98637.66;;;20.91;93.68
15670;BME280;18524;45.190;5.732;2022-09-16T04:30:21;98633.16;;;20.99;93.72
15670;BME280;18524;45.190;5.732;2022-09-16T04:35:12;98630.03;;;20.75;95.21
15670;BME280;18524;45.190;5.732;2022-09-16T04:40:02;98630.28;;;21.00;92.29
15670;BME280;18524;45.190;5.732;2022-09-16T04:44:53;98632.56;;;21.10;91.88
15670;BME280;18524;45.190;5.732;2022-09-16T04:49:43;98641.81;;;21.20;92.81
15670;BME280;18524;45.190;5.732;2022-09-16T04:54:33;98641.03;;;21.33;89.42
15670;BME280;18524;45.190;5.732;2022-09-16T04:59:24;98636.03;;;21.04;92.81
15670;BME280;18524;45.190;5.732;2022-09-16T05:04:14;98643.41;;;20.88;93.96
15670;BME280;18524;45.190;5.732;2022-09-16T05:09:05;98635.00;;;20.98;93.81
15670;BME280;18524;45.190;5.732;2022-09-16T05:14:00;98637.91;;;21.16;90.60
15670;BME280;18524;45.190;5.732;2022-09-16T05:18:54;98632.63;;;21.36;88.70
15670;BME280;18524;45.190;5.732;2022-09-16T05:23:45;98638.78;;;21.30;91.12
15670;BME280;18524;45.190;5.732;2022-09-16T05:28:36;98636.94;;;21.37;90.31
15670;BME280;18524;45.190;5.732;2022-09-16T05:33:26;98640.00;;;21.47;88.69
15670;BME280;18524;45.190;5.732;2022-09-16T05:38:17;98630.69;;;20.97;93.65
15670;BME280;18524;45.190;5.732;2022-09-16T05:43:07;98638.69;;;20.84;96.13
15670;BME280;18524;45.190;5.732;2022-09-16T05:47:58;98642.81;;;20.93;94.06
15670;BME280;18524;45.190;5.732;2022-09-16T05:52:48;98643.81;;;20.99;94.94
15670;BME280;18524;45.190;5.732;2022-09-16T05:57:38;98654.00;;;20.75;96.54
15670;BME280;18524;45.190;5.732;2022-09-16T06:02:29;98656.94;;;20.94;95.02
15670;BME280;18524;45.190;5.732;2022-09-16T06:07:19;98663.72;;;20.96;95.65
15670;BME280;18524;45.190;5.732;2022-09-16T06:12:11;98664.75;;;21.15;92.93
15670;BME280;18524;45.190;5.732;2022-09-16T06:17:02;98660.44;;;21.01;95.99
15670;BME280;18524;45.190;5.732;2022-09-16T06:21:53;98654.09;;;21.02;94.31
15670;BME280;18524;45.190;5.732;2022-09-16T06:26:44;98662.31;;;21.13;93.83
15670;BME280;18524;45.190;5.732;2022-09-16T06:31:36;98665.38;;;21.17;93.72
15670;BME280;18524;45.190;5.732;2022-09-16T06:36:30;98660.66;;;21.06;93.65
15670;BME280;18524;45.190;5.732;2022-09-16T06:41:20;98670.09;;;21.08;94.12
15670;BME280;18524;45.190;5.732;2022-09-16T06:46:17;98662.78;;;21.24;92.31
15670;BME280;18524;45.190;5.732;2022-09-16T06:51:16;98672.56;;;21.16;93.78
15670;BME280;18524;45.190;5.732;2022-09-16T06:56:09;98664.63;;;21.43;89.88
15670;BME280;18524;45.190;5.732;2022-09-16T07:01:09;98673.88;;;21.60;88.81
15670;BME280;18524;45.190;5.732;2022-09-16T07:06:00;98670.56;;;21.51;90.46
15670;BME280;18524;45.190;5.732;2022-09-16T07:10:59;98677.75;;;21.44;89.55
15670;BME280;18524;45.190;5.732;2022-09-16T07:15:50;98661.13;;;21.56;91.18
15670;BME280;18524;45.190;5.732;2022-09-16T07:20:40;98667.50;;;21.54;90.82
15670;BME280;18524;45.190;5.732;2022-09-16T07:25:30;98678.38;;;21.33;91.89
15670;BME280;18524;45.190;5.732;2022-09-16T07:30:21;98682.03;;;21.92;88.75
15670;BME280;18524;45.190;5.732;2022-09-16T07:35:11;98676.44;;;22.91;81.26
15670;BME280;18524;45.190;5.732;2022-09-16T07:40:02;98669.13;;;23.92;76.55
15670;BME280;18524;45.190;5.732;2022-09-16T07:44:53;98673.59;;;23.49;78.50
15670;BME280;18524;45.190;5.732;2022-09-16T07:49:43;98681.72;;;23.04;81.00
15670;BME280;18524;45.190;5.732;2022-09-16T07:54:34;98675.66;;;22.84;80.94
15670;BME280;18524;45.190;5.732;2022-09-16T07:59:24;98684.13;;;22.74;83.84
15670;BME280;18524;45.190;5.732;2022-09-16T08:04:16;98683.97;;;22.56;83.38
15670;BME280;18524;45.190;5.732;2022-09-16T08:09:07;98686.69;;;22.49;86.29
15670;BME280;18524;45.190;5.732;2022-09-16T08:13:58;98697.41;;;22.36;85.06
15670;BME280;18524;45.190;5.732;2022-09-16T08:18:50;98692.41;;;22.53;87.85
15670;BME280;18524;45.190;5.732;2022-09-16T08:23:42;98693.34;;;22.78;86.12
15670;BME280;18524;45.190;5.732;2022-09-16T08:28:32;98693.78;;;22.75;84.90
15670;BME280;18524;45.190;5.732;2022-09-16T08:33:23;98693.72;;;23.26;83.71
15670;BME280;18524;45.190;5.732;2022-09-16T08:38:15;98696.81;;;24.29;76.58
15670;BME280;18524;45.190;5.732;2022-09-16T08:53:27;98700.66;;;25.18;72.63
15670;BME280;18524;45.190;5.732;2022-09-16T08:58:26;98696.78;;;25.56;70.37
15670;BME280;18524;45.190;5.732;2022-09-16T09:18:48;98702.34;;;26.20;67.18
15670;BME280;18524;45.190;5.732;2022-09-16T09:34:22;98692.63;;;26.94;61.17
15670;BME280;18524;45.190;5.732;2022-09-16T09:39:31;98687.84;;;27.41;60.95
15670;BME280;18524;45.190;5.732;2022-09-16T09:49:43;98685.22;;;27.29;58.10
15670;BME280;18524;45.190;5.732;2022-09-16T09:54:34;98688.31;;;27.38;54.85
15670;BME280;18524;45.190;5.732;2022-09-16T10:04:30;98678.50;;;28.16;51.39
15670;BME280;18524;45.190;5.732;2022-09-16T10:09:25;98680.25;;;27.38;52.15
15670;BME280;18524;45.190;5.732;2022-09-16T10:14:34;98696.34;;;27.04;53.99
15670;BME280;18524;45.190;5.732;2022-09-16T10:19:26;98697.78;;;26.20;53.63
15670;BME280;18524;45.190;5.732;2022-09-16T10:29:17;98701.88;;;25.88;56.65
15670;BME280;18524;45.190;5.732;2022-09-16T10:34:35;98698.25;;;25.94;55.34
15670;BME280;18524;45.190;5.732;2022-09-16T10:39:28;98691.03;;;26.06;54.72
15670;BME280;18524;45.190;5.732;2022-09-16T10:44:26;98677.91;;;26.21;53.84
15670;BME280;18524;45.190;5.732;2022-09-16T10:49:20;98679.31;;;26.35;52.86
15670;BME280;18524;45.190;5.732;2022-09-16T10:54:26;98675.66;;;27.22;49.62
15670;BME280;18524;45.190;5.732;2022-09-16T10:59:17;98656.91;;;27.94;47.99
15670;BME280;18524;45.190;5.732;2022-09-16T11:30:19;98652.78;;;29.44;41.04
15670;BME280;18524;45.190;5.732;2022-09-16T11:50:51;98637.75;;;28.78;40.90
15670;BME280;18524;45.190;5.732;2022-09-16T11:55:52;98630.13;;;28.48;41.53
15670;BME280;18524;45.190;5.732;2022-09-16T12:00:45;98633.59;;;29.19;41.13
15670;BME280;18524;45.190;5.732;2022-09-16T12:05:41;98644.91;;;28.89;41.89
15670;BME280;18524;45.190;5.732;2022-09-16T12:10:42;98636.28;;;28.43;43.36
15670;BME280;18524;45.190;5.732;2022-09-16T12:15:46;98647.41;;;28.47;41.97
15670;BME280;18524;45.190;5.732;2022-09-16T12:20:46;98638.53;;;27.91;43.50
15670;BME280;18524;45.190;5.732;2022-09-16T12:25:42;98618.91;;;28.34;44.18
15670;BME280;18524;45.190;5.732;2022-09-16T12:36:14;98613.53;;;29.42;40.85
15670;BME280;18524;45.190;5.732;2022-09-16T12:51:25;98611.75;;;28.45;42.33
15670;BME280;18524;45.190;5.732;2022-09-16T12:56:46;98604.06;;;28.31;41.44
15670;BME280;18524;45.190;5.732;2022-09-16T13:01:44;98600.31;;;27.94;42.43
15670;BME280;18524;45.190;5.732;2022-09-16T13:06:43;98583.34;;;27.43;44.07
15670;BME280;18524;45.190;5.732;2022-09-16T13:11:34;98585.66;;;27.51;43.94
15670;BME280;18524;45.190;5.732;2022-09-16T13:16:33;98572.09;;;27.13;43.91
15670;BME280;18524;45.190;5.732;2022-09-16T13:21:27;98586.16;;;27.31;43.99
15670;BME280;18524;45.190;5.732;2022-09-16T13:26:18;98579.44;;;27.34;44.88
15670;BME280;18524;45.190;5.732;2022-09-16T13:31:14;98567.19;;;27.43;44.17
15670;BME280;18524;45.190;5.732;2022-09-16T13:36:36;98579.44;;;27.34;42.85
15670;BME280;18524;45.190;5.732;2022-09-16T13:41:46;98583.31;;;27.21;42.31
15670;BME280;18524;45.190;5.732;2022-09-16T13:46:36;98581.53;;;26.82;42.74
15670;BME280;18524;45.190;5.732;2022-09-16T13:51:28;98572.59;;;26.64;43.47
15670;BME280;18524;45.190;5.732;2022-09-16T14:01:44;98579.66;;;26.54;44.87
15670;BME280;18524;45.190;5.732;2022-09-16T14:11:48;98573.78;;;26.16;46.61
15670;BME280;18524;45.190;5.732;2022-09-16T14:16:42;98576.63;;;25.98;46.51
15670;BME280;18524;45.190;5.732;2022-09-16T14:21:33;98587.38;;;25.51;47.99
15670;BME280;18524;45.190;5.732;2022-09-16T14:26:24;98588.91;;;25.59;47.49
15670;BME280;18524;45.190;5.732;2022-09-16T14:31:19;98592.63;;;25.58;47.67
15670;BME280;18524;45.190;5.732;2022-09-16T14:36:23;98588.66;;;25.49;46.79
15670;BME280;18524;45.190;5.732;2022-09-16T14:41:30;98583.19;;;25.55;47.01
15670;BME280;18524;45.190;5.732;2022-09-16T14:46:22;98584.34;;;25.48;47.74
15670;BME280;18524;45.190;5.732;2022-09-16T14:51:22;98581.44;;;25.38;47.17
15670;BME280;18524;45.190;5.732;2022-09-16T14:56:17;98578.88;;;25.43;47.15
15670;BME280;18524;45.190;5.732;2022-09-16T15:01:13;98583.78;;;25.46;46.54
15670;BME280;18524;45.190;5.732;2022-09-16T15:06:10;98586.81;;;25.38;46.38
15670;BME280;18524;45.190;5.732;2022-09-16T15:11:11;98579.56;;;25.50;45.16
15670;BME280;18524;45.190;5.732;2022-09-16T15:16:08;98581.31;;;25.56;45.32
15670;BME280;18524;45.190;5.732;2022-09-16T15:21:16;98588.19;;;25.64;44.76
15670;BME280;18524;45.190;5.732;2022-09-16T15:26:12;98583.53;;;25.59;44.99
15670;BME280;18524;45.190;5.732;2022-09-16T15:31:03;98572.44;;;25.55;44.83
15670;BME280;18524;45.190;5.732;2022-09-16T15:35:56;98580.16;;;25.52;45.15
15670;BME280;18524;45.190;5.732;2022-09-16T15:40:48;98584.34;;;25.36;45.82
15670;BME280;18524;45.190;5.732;2022-09-16T15:46:13;98588.22;;;25.29;45.69
15670;BME280;18524;45.190;5.732;2022-09-16T15:51:08;98587.22;;;25.11;46.45
15670;BME280;18524;45.190;5.732;2022-09-16T15:56:28;98593.94;;;24.90;46.67
15670;BME280;18524;45.190;5.732;2022-09-16T16:01:42;98593.63;;;24.69;46.83
15670;BME280;18524;45.190;5.732;2022-09-16T16:11:42;98601.28;;;24.53;46.95
15670;BME280;18524;45.190;5.732;2022-09-16T16:16:33;98597.59;;;24.48;48.00
15670;BME280;18524;45.190;5.732;2022-09-16T16:21:23;98607.50;;;24.47;46.42
15670;BME280;18524;45.190;5.732;2022-09-16T16:26:13;98604.97;;;24.52;47.22
15670;BME280;18524;45.190;5.732;2022-09-16T16:36:02;98618.09;;;24.24;48.77
15670;BME280;18524;45.190;5.732;2022-09-16T16:40:53;98626.41;;;24.16;49.41
15670;BME280;18524;45.190;5.732;2022-09-16T16:45:43;98626.13;;;24.06;49.36
15670;BME280;18524;45.190;5.732;2022-09-16T16:50:34;98620.25;;;23.97;50.56
15670;BME280;18524;45.190;5.732;2022-09-16T16:55:24;98633.25;;;23.93;50.21
15670;BME280;18524;45.190;5.732;2022-09-16T17:00:14;98636.75;;;23.94;49.77
15670;BME280;18524;45.190;5.732;2022-09-16T17:05:05;98638.63;;;23.93;50.28
15670;BME280;18524;45.190;5.732;2022-09-16T17:09:56;98636.28;;;23.79;50.11
15670;BME280;18524;45.190;5.732;2022-09-16T17:14:46;98635.63;;;23.83;50.00
15670;BME280;18524;45.190;5.732;2022-09-16T17:19:37;98641.97;;;23.89;48.38
15670;BME280;18524;45.190;5.732;2022-09-16T17:24:27;98638.28;;;23.65;48.60
15670;BME280;18524;45.190;5.732;2022-09-16T17:29:17;98633.59;;;23.60;48.64
15670;BME280;18524;45.190;5.732;2022-09-16T17:34:11;98634.84;;;23.58;47.27
15670;BME280;18524;45.190;5.732;2022-09-16T17:39:07;98633.19;;;23.57;46.16
15670;BME280;18524;45.190;5.732;2022-09-16T17:43:58;98625.81;;;23.52;48.53
15670;BME280;18524;45.190;5.732;2022-09-16T17:48:57;98632.88;;;23.40;48.56
15670;BME280;18524;45.190;5.732;2022-09-16T17:53:48;98633.06;;;23.20;48.18
15670;BME280;18524;45.190;5.732;2022-09-16T17:58:41;98644.19;;;23.17;49.92
15670;BME280;18524;45.190;5.732;2022-09-16T18:03:31;98638.47;;;23.14;48.00
15670;BME280;18524;45.190;5.732;2022-09-16T18:08:22;98634.38;;;23.11;48.22
15670;BME280;18524;45.190;5.732;2022-09-16T18:13:12;98639.13;;;23.02;46.95
15670;BME280;18524;45.190;5.732;2022-09-16T18:18:03;98642.53;;;22.85;48.39
15670;BME280;18524;45.190;5.732;2022-09-16T18:22:53;98638.28;;;22.70;48.88
15670;BME280;18524;45.190;5.732;2022-09-16T18:27:43;98642.00;;;22.69;49.78
15670;BME280;18524;45.190;5.732;2022-09-16T18:32:34;98653.97;;;22.54;47.70
15670;BME280;18524;45.190;5.732;2022-09-16T18:37:24;98648.97;;;22.64;48.05
15670;BME280;18524;45.190;5.732;2022-09-16T18:42:14;98649.06;;;22.51;49.17
15670;BME280;18524;45.190;5.732;2022-09-16T18:47:05;98647.84;;;22.46;50.08
15670;BME280;18524;45.190;5.732;2022-09-16T18:51:56;98664.09;;;22.45;49.75
15670;BME280;18524;45.190;5.732;2022-09-16T18:56:46;98659.16;;;22.42;48.41
15670;BME280;18524;45.190;5.732;2022-09-16T19:01:37;98673.94;;;22.51;50.51
15670;BME280;18524;45.190;5.732;2022-09-16T19:06:33;98666.50;;;22.53;47.54
15670;BME280;18524;45.190;5.732;2022-09-16T19:11:26;98668.44;;;22.39;48.95
15670;BME280;18524;45.190;5.732;2022-09-16T19:16:17;98685.13;;;22.22;49.14
15670;BME280;18524;45.190;5.732;2022-09-16T19:21:15;98689.22;;;22.18;47.98
15670;BME280;18524;45.190;5.732;2022-09-16T19:26:08;98690.88;;;22.19;51.07
15670;BME280;18524;45.190;5.732;2022-09-16T19:31:09;98695.41;;;22.18;49.97
15670;BME280;18524;45.190;5.732;2022-09-16T19:36:08;98698.03;;;22.25;50.09
15670;BME280;18524;45.190;5.732;2022-09-16T19:41:02;98703.00;;;22.21;49.73
15670;BME280;18524;45.190;5.732;2022-09-16T19:45:53;98703.63;;;22.17;50.66
15670;BME280;18524;45.190;5.732;2022-09-16T19:50:50;98704.47;;;21.97;52.57
15670;BME280;18524;45.190;5.732;2022-09-16T19:55:40;98699.13;;;21.97;53.16
15670;BME280;18524;45.190;5.732;2022-09-16T20:00:31;98708.75;;;21.85;52.42
15670;BME280;18524;45.190;5.732;2022-09-16T20:05:21;98711.63;;;21.90;53.99
15670;BME280;18524;45.190;5.732;2022-09-16T20:10:12;98722.31;;;21.83;54.28
15670;BME280;18524;45.190;5.732;2022-09-16T20:15:03;98722.72;;;22.00;53.69
15670;BME280;18524;45.190;5.732;2022-09-16T20:19:54;98737.09;;;21.79;52.73
15670;BME280;18524;45.190;5.732;2022-09-16T20:24:44;98736.06;;;21.80;52.79
15670;BME280;18524;45.190;5.732;2022-09-16T20:29:34;98735.03;;;21.88;55.10
15670;BME280;18524;45.190;5.732;2022-09-16T20:34:25;98721.50;;;21.76;54.61
15670;BME280;18524;45.190;5.732;2022-09-16T20:39:15;98731.16;;;21.71;55.79
15670;BME280;18524;45.190;5.732;2022-09-16T20:44:06;98723.94;;;21.38;54.50
15670;BME280;18524;45.190;5.732;2022-09-16T20:48:59;98731.34;;;21.49;57.32
15670;BME280;18524;45.190;5.732;2022-09-16T20:53:54;98723.31;;;21.36;55.66
15670;BME280;18524;45.190;5.732;2022-09-16T20:58:46;98721.50;;;21.57;56.54
15670;BME280;18524;45.190;5.732;2022-09-16T21:03:37;98724.34;;;21.55;55.02
15670;BME280;18524;45.190;5.732;2022-09-16T21:08:27;98725.16;;;21.29;56.51
15670;BME280;18524;45.190;5.732;2022-09-16T21:13:17;98729.28;;;21.32;57.69
15670;BME280;18524;45.190;5.732;2022-09-16T21:18:08;98725.78;;;21.38;55.98
15670;BME280;18524;45.190;5.732;2022-09-16T21:22:58;98737.88;;;21.34;56.36
15670;BME280;18524;45.190;5.732;2022-09-16T21:27:49;98733.91;;;21.16;56.68
15670;BME280;18524;45.190;5.732;2022-09-16T21:32:41;98739.63;;;21.07;55.79
15670;BME280;18524;45.190;5.732;2022-09-16T21:37:32;98757.69;;;21.11;57.70
15670;BME280;18524;45.190;5.732;2022-09-16T21:42:22;98758.50;;;21.12;57.94
15670;BME280;18524;45.190;5.732;2022-09-16T21:47:12;98759.72;;;21.03;56.50
15670;BME280;18524;45.190;5.732;2022-09-16T21:52:03;98747.63;;;21.07;57.58
15670;BME280;18524;45.190;5.732;2022-09-16T21:56:53;98744.91;;;20.87;57.34
15670;BME280;18524;45.190;5.732;2022-09-16T22:01:44;98736.31;;;20.91;59.34
15670;BME280;18524;45.190;5.732;2022-09-16T22:06:35;98734.06;;;20.95;59.54
15670;BME280;18524;45.190;5.732;2022-09-16T22:11:28;98743.69;;;20.96;56.78
15670;BME280;18524;45.190;5.732;2022-09-16T22:16:21;98758.25;;;20.94;58.15
15670;BME280;18524;45.190;5.732;2022-09-16T22:21:15;98745.25;;;20.77;59.84
15670;BME280;18524;45.190;5.732;2022-09-16T22:26:08;98746.53;;;20.81;57.83
15670;BME280;18524;45.190;5.732;2022-09-16T22:31:09;98754.66;;;20.67;58.03
15670;BME280;18524;45.190;5.732;2022-09-16T22:36:04;98743.53;;;21.04;60.41
15670;BME280;18524;45.190;5.732;2022-09-16T22:41:14;98750.00;;;21.43;58.21
15670;BME280;18524;45.190;5.732;2022-09-16T22:46:13;98746.56;;;21.62;56.43
15670;BME280;18524;45.190;5.732;2022-09-16T22:51:04;98740.81;;;21.65;56.13
15670;BME280;18524;45.190;5.732;2022-09-16T23:00:46;98746.56;;;21.75;56.22
15670;BME280;18524;45.190;5.732;2022-09-16T23:05:36;98757.03;;;21.57;55.88
15670;BME280;18524;45.190;5.732;2022-09-16T23:10:26;98753.94;;;21.67;55.86
15670;BME280;18524;45.190;5.732;2022-09-16T23:15:17;98761.75;;;21.75;55.55
15670;BME280;18524;45.190;5.732;2022-09-16T23:20:08;98750.66;;;21.84;54.70
15670;BME280;18524;45.190;5.732;2022-09-16T23:24:59;98765.66;;;21.79;55.25
15670;BME280;18524;45.190;5.732;2022-09-16T23:29:49;98750.03;;;21.76;54.24
15670;BME280;18524;45.190;5.732;2022-09-16T23:34:39;98750.25;;;21.68;55.50
15670;BME280;18524;45.190;5.732;2022-09-16T23:39:30;98758.47;;;21.79;55.16
15670;BME280;18524;45.190;5.732;2022-09-16T23:44:20;98758.06;;;21.76;54.62
15670;BME280;18524;45.190;5.732;2022-09-16T23:49:11;98749.00;;;21.83;54.29
15670;BME280;18524;45.190;5.732;2022-09-16T23:54:02;98757.03;;;21.83;54.12
15670;BME280;18524;45.190;5.732;2022-09-16T23:58:56;98755.59;;;21.81;53.51
